Time;durP1;ratioP1;P1;durP2;ratioP2;P2;SDS_P1;SDS_P2;PMS_P1;PMS_P2;Temp;Humidity;BMP_temperature;BMP_pressure;BME280_temperature;BME280_humidity;BME280_pressure;Samples;Min_cycle;Max_cycle;Signal;HPM_P1;HPM_P2
2022/05/31 00:01:42;;;;;;;2.00;1.87;;;;;;;10.86;90.48;99853.16;5023894;28;20187;-75
2022/05/31 00:04:08;;;;;;;2.53;1.90;;;;;;;10.88;90.39;99852.25;5020869;28;20195;-76
2022/05/31 00:06:33;;;;;;;1.70;1.60;;;;;;;10.86;90.31;99843.63;5019800;28;20250;-75
2022/05/31 00:08:58;;;;;;;2.57;2.30;;;;;;;10.87;90.16;99850.53;5037233;28;20212;-76
2022/05/31 00:11:24;;;;;;;1.97;1.60;;;;;;;10.84;90.25;99840.22;5028278;28;20184;-75
2022/05/31 00:13:50;;;;;;;1.87;1.77;;;;;;;10.83;90.48;99841.09;5025433;28;20176;-75
2022/05/31 00:16:15;;;;;;;2.00;1.90;;;;;;;10.80;90.60;99838.59;5027892;28;20175;-75
2022/05/31 00:18:41;;;;;;;2.47;2.07;;;;;;;10.80;90.37;99836.84;5022580;28;20215;-75
2022/05/31 00:21:07;;;;;;;2.23;1.80;;;;;;;10.77;90.57;99836.88;5021200;28;20330;-75
2022/05/31 00:23:34;;;;;;;2.07;1.97;;;;;;;10.75;90.72;99836.06;5023994;28;20188;-75
2022/05/31 00:25:59;;;;;;;1.80;1.70;;;;;;;10.71;91.00;99829.25;5020920;28;20219;-75
2022/05/31 00:28:25;;;;;;;2.10;1.90;;;;;;;10.64;91.03;99833.66;5019957;28;20187;-75
2022/05/31 00:30:51;;;;;;;2.30;1.83;;;;;;;10.61;91.74;99832.84;5024091;28;20195;-75
2022/05/31 00:33:17;;;;;;;3.00;2.00;;;;;;;10.67;91.50;99832.75;5032072;28;20183;-75
2022/05/31 00:35:46;;;;;;;2.00;1.90;;;;;;;10.70;91.17;99824.94;5027641;28;20205;-75
2022/05/31 00:38:13;;;;;;;3.50;2.30;;;;;;;10.76;90.96;99832.59;5025315;28;20180;-74
2022/05/31 00:40:39;;;;;;;3.77;2.13;;;;;;;10.66;91.43;99823.28;5022301;28;20273;-75
2022/05/31 00:43:09;;;;;;;3.63;1.90;;;;;;;10.60;91.86;99844.94;5024409;28;20242;-75
2022/05/31 00:45:52;;;;;;;1.97;1.77;;;;;;;10.61;91.83;99830.25;5020854;28;20746;-75
2022/05/31 00:48:20;;;;;;;2.53;2.10;;;;;;;10.57;92.02;99831.22;5019650;28;20199;-75
2022/05/31 00:50:51;;;;;;;2.50;2.07;;;;;;;10.57;91.93;99824.28;5025180;28;20189;-75
2022/05/31 00:53:23;;;;;;;2.40;2.20;;;;;;;10.56;92.15;99820.00;5024585;28;20184;-75
2022/05/31 00:55:55;;;;;;;2.20;2.00;;;;;;;10.56;91.66;99819.16;5023211;28;20185;-75
2022/05/31 00:58:32;;;;;;;2.23;1.97;;;;;;;10.54;92.02;99826.91;5016235;28;20183;-74
2022/05/31 01:01:00;;;;;;;1.83;1.73;;;;;;;10.59;91.59;99832.88;5019624;28;20191;-75
2022/05/31 01:03:28;;;;;;;2.93;2.00;;;;;;;10.57;91.76;99834.63;5025100;28;20738;-75
2022/05/31 01:05:53;;;;;;;2.03;1.90;;;;;;;10.56;92.22;99838.09;5024373;28;20203;-74
2022/05/31 01:08:19;;;;;;;2.30;1.90;;;;;;;10.57;92.05;99837.22;5028383;28;20665;-75
2022/05/31 01:10:45;;;;;;;2.23;1.97;;;;;;;10.54;91.92;99826.06;5015196;28;20175;-75
2022/05/31 01:13:16;;;;;;;2.30;2.10;;;;;;;10.56;92.06;99834.66;5024808;28;20549;-76
2022/05/31 01:15:43;;;;;;;4.20;2.20;;;;;;;10.52;92.11;99841.59;5020263;28;20655;-75
2022/05/31 01:18:09;;;;;;;2.63;2.30;;;;;;;10.50;92.24;99841.63;5023331;28;20254;-75
2022/05/31 01:20:34;;;;;;;2.27;1.70;;;;;;;10.50;92.66;99845.97;5025644;28;20206;-75
2022/05/31 01:23:06;;;;;;;2.10;1.90;;;;;;;10.50;92.44;99841.63;5016529;28;20578;-75
2022/05/31 01:26:17;;;;;;;2.80;2.00;;;;;;;10.50;92.83;99849.41;5014626;28;20225;-76
2022/05/31 01:29:10;;;;;;;2.53;2.10;;;;;;;10.47;93.19;99854.63;5016897;28;20605;-75
2022/05/31 01:31:52;;;;;;;1.97;1.83;;;;;;;10.48;93.71;99847.72;5013903;28;20195;-75
2022/05/31 01:34:27;;;;;;;2.20;1.83;;;;;;;10.47;93.62;99848.59;5019592;28;20274;-75
2022/05/31 01:36:55;;;;;;;2.50;1.80;;;;;;;10.44;94.09;99844.31;5017654;28;20208;-75
2022/05/31 01:39:45;;;;;;;2.20;2.10;;;;;;;10.46;93.92;99841.72;5014759;28;20737;-75
2022/05/31 01:42:24;;;;;;;2.00;1.80;;;;;;;10.44;94.14;99852.06;5022289;28;20743;-75
2022/05/31 01:44:56;;;;;;;2.43;2.23;;;;;;;10.45;94.20;99850.34;5015285;28;20214;-75
2022/05/31 01:47:22;;;;;;;1.90;1.80;;;;;;;10.43;94.19;99846.94;5016354;28;20193;-75
2022/05/31 01:49:52;;;;;;;2.07;1.87;;;;;;;10.36;94.30;99841.81;5016190;28;20215;-77
2022/05/31 01:52:19;;;;;;;2.23;2.00;;;;;;;10.32;94.51;99847.06;5017704;28;20192;-75
2022/05/31 01:54:46;;;;;;;2.27;2.00;;;;;;;10.28;94.81;99845.41;5028879;28;20274;-74
2022/05/31 01:57:14;;;;;;;2.73;2.20;;;;;;;10.29;95.43;99844.50;5038725;28;20200;-77
2022/05/31 01:59:44;;;;;;;3.37;1.93;;;;;;;10.28;95.75;99840.25;5014361;28;20216;-75
2022/05/31 02:02:15;;;;;;;3.20;2.10;;;;;;;10.23;96.13;99850.63;5023050;28;20183;-75
2022/05/31 02:04:42;;;;;;;3.60;2.20;;;;;;;10.21;96.77;99840.31;5020302;28;20195;-75
2022/05/31 02:07:23;;;;;;;2.33;2.13;;;;;;;10.20;96.69;99851.53;5025834;28;20194;-75
2022/05/31 02:09:51;;;;;;;2.30;1.93;;;;;;;10.24;96.22;99851.50;5023846;28;20211;-75
2022/05/31 02:12:18;;;;;;;2.37;2.00;;;;;;;10.24;96.66;99856.69;5030582;28;20184;-76
2022/05/31 02:14:44;;;;;;;2.00;1.90;;;;;;;10.18;97.00;99857.63;5021994;28;20191;-75
2022/05/31 02:17:10;;;;;;;2.43;1.77;;;;;;;10.18;97.15;99855.88;5030264;28;20280;-75
2022/05/31 02:19:36;;;;;;;3.00;2.40;;;;;;;10.21;97.00;99858.44;5025031;28;20207;-75
2022/05/31 02:22:06;;;;;;;2.20;2.00;;;;;;;10.21;97.18;99857.56;5031037;28;20278;-75
2022/05/31 02:24:31;;;;;;;2.27;2.10;;;;;;;10.20;97.09;99855.88;5024865;28;20191;-75
2022/05/31 02:26:57;;;;;;;2.27;2.17;;;;;;;10.19;97.24;99859.34;5029056;28;20583;-75
2022/05/31 02:29:26;;;;;;;2.90;1.93;;;;;;;10.20;96.94;99866.22;5034553;28;20211;-75
2022/05/31 02:31:52;;;;;;;1.93;1.83;;;;;;;10.19;96.91;99864.50;5030712;28;20333;-75
2022/05/31 02:34:22;;;;;;;3.00;2.20;;;;;;;10.16;96.77;99867.97;5033561;28;20614;-74
2022/05/31 02:36:48;;;;;;;3.20;2.10;;;;;;;10.12;96.80;99861.16;5026886;28;20186;-76
2022/05/31 02:39:13;;;;;;;2.20;2.00;;;;;;;10.11;96.97;99850.81;5025280;28;20233;-74
2022/05/31 02:41:39;;;;;;;2.30;2.07;;;;;;;10.11;96.89;99845.66;5035568;28;20255;-75
2022/05/31 02:44:06;;;;;;;2.60;2.40;;;;;;;10.11;96.85;99845.66;5023398;28;20337;-75
2022/05/31 02:46:31;;;;;;;2.37;2.17;;;;;;;10.11;97.56;99845.66;5027354;28;20215;-75
2022/05/31 02:48:56;;;;;;;2.33;2.10;;;;;;;10.08;98.49;99841.38;5027425;28;20226;-75
2022/05/31 02:51:22;;;;;;;2.30;2.10;;;;;;;10.07;98.85;99829.31;5033373;28;20674;-75
2022/05/31 02:53:48;;;;;;;2.37;2.17;;;;;;;10.02;98.94;99823.34;5023556;28;20191;-75
2022/05/31 02:56:13;;;;;;;3.20;2.27;;;;;;;9.98;99.22;99834.63;5029784;28;20180;-76
2022/05/31 02:58:38;;;;;;;2.57;2.37;;;;;;;9.92;99.54;99830.38;5021635;28;20808;-75
2022/05/31 03:01:27;;;;;;;2.50;2.30;;;;;;;9.87;99.58;99833.03;5021829;28;20206;-75
2022/05/31 03:03:53;;;;;;;3.60;2.40;;;;;;;9.80;99.89;99831.41;5023644;28;20199;-75
2022/05/31 03:06:19;;;;;;;2.60;2.40;;;;;;;9.75;100.00;99831.50;5022808;28;20230;-75
2022/05/31 03:08:45;;;;;;;3.20;2.90;;;;;;;9.70;100.00;99822.94;5029251;28;20707;-76
2022/05/31 03:11:17;;;;;;;2.93;2.63;;;;;;;9.65;100.00;99826.44;5024580;28;20183;-75
2022/05/31 03:13:44;;;;;;;3.77;2.70;;;;;;;9.59;100.00;99833.38;5026214;28;20698;-74
2022/05/31 03:16:11;;;;;;;3.00;2.43;;;;;;;9.55;100.00;99836.88;5024874;28;20230;-75
2022/05/31 03:18:44;;;;;;;6.17;3.10;;;;;;;9.51;100.00;99839.53;5027452;28;20207;-76
2022/05/31 03:21:15;;;;;;;2.57;2.27;;;;;;;9.48;100.00;99837.84;5025089;28;20663;-75
2022/05/31 03:23:46;;;;;;;2.17;2.00;;;;;;;9.45;100.00;99833.53;5020901;28;20196;-75
2022/05/31 03:26:14;;;;;;;2.63;2.43;;;;;;;9.46;100.00;99829.25;5018909;28;20226;-75
2022/05/31 03:28:40;;;;;;;3.40;2.37;;;;;;;9.43;100.00;99826.69;5017200;28;20210;-75
2022/05/31 03:31:07;;;;;;;3.03;2.60;;;;;;;9.46;100.00;99821.50;5025000;28;20708;-76
2022/05/31 03:33:32;;;;;;;2.47;2.27;;;;;;;9.48;100.00;99824.06;5023106;28;20195;-75
2022/05/31 03:35:58;;;;;;;2.80;2.53;;;;;;;9.42;100.00;99831.03;5025373;28;20191;-75
2022/05/31 03:38:23;;;;;;;3.23;2.80;;;;;;;9.46;100.00;99831.84;5024968;28;20199;-75
2022/05/31 03:40:58;;;;;;;2.90;2.70;;;;;;;9.43;100.00;99826.69;5019490;28;20184;-75
2022/05/31 03:43:31;;;;;;;2.73;2.50;;;;;;;9.36;100.00;99830.25;5019623;28;20194;-76
2022/05/31 03:45:57;;;;;;;3.23;2.90;;;;;;;9.37;100.00;99822.47;5024489;28;20212;-75
2022/05/31 03:48:23;;;;;;;3.00;2.70;;;;;;;9.36;100.00;99819.91;5024716;28;20200;-74
2022/05/31 03:51:08;;;;;;;2.70;2.50;;;;;;;9.34;100.00;99814.75;5021834;28;20556;-75
2022/05/31 03:53:34;;;;;;;3.13;2.37;;;;;;;9.32;100.00;99811.31;5029968;28;20682;-75
2022/05/31 03:56:04;;;;;;;5.10;2.50;;;;;;;9.30;100.00;99818.25;5019606;28;20186;-75
2022/05/31 03:58:31;;;;;;;5.07;2.77;;;;;;;9.30;100.00;99818.25;5024034;28;20275;-75
2022/05/31 04:00:57;;;;;;;2.90;2.70;;;;;;;9.28;100.00;99822.56;5025391;28;20201;-75
2022/05/31 04:03:22;;;;;;;2.93;2.20;;;;;;;9.30;100.00;99815.66;5020092;28;20195;-76
2022/05/31 04:05:49;;;;;;;2.90;2.70;;;;;;;9.35;100.00;99811.28;5022669;28;20246;-75
2022/05/31 04:08:15;;;;;;;2.87;2.40;;;;;;;9.40;100.00;99801.78;5022252;28;20810;-76
2022/05/31 04:10:42;;;;;;;2.67;2.50;;;;;;;9.45;100.00;99799.97;5021738;28;20200;-76
2022/05/31 04:13:08;;;;;;;2.47;2.27;;;;;;;9.54;100.00;99805.91;5019709;28;20179;-76
2022/05/31 04:15:34;;;;;;;2.60;2.40;;;;;;;9.64;99.61;99802.31;5019435;28;20242;-75
2022/05/31 04:18:01;;;;;;;2.93;2.37;;;;;;;9.80;99.21;99800.41;5024032;28;20599;-75
2022/05/31 04:20:26;;;;;;;2.67;2.37;;;;;;;9.97;98.20;99796.75;5023303;28;20230;-76
2022/05/31 04:23:57;;;;;;;2.43;2.23;;;;;;;10.17;97.07;99794.69;5022846;28;20330;-75
2022/05/31 04:25:37;;;;;;;2.73;2.50;;;;;;;10.58;95.41;99789.78;5022627;28;20213;-74
2022/05/31 04:28:03;;;;;;;3.13;2.50;;;;;;;11.21;93.37;99795.53;5023050;28;20538;-75
2022/05/31 04:30:28;;;;;;;2.37;1.90;;;;;;;11.74;91.02;99795.31;5025151;28;20215;-75
2022/05/31 04:32:53;;;;;;;2.33;2.13;;;;;;;12.27;89.58;99790.72;5025505;28;20230;-75
2022/05/31 04:35:19;;;;;;;2.10;2.00;;;;;;;12.93;87.56;99804.63;5020316;28;20560;-75
2022/05/31 04:37:44;;;;;;;2.97;2.30;;;;;;;13.36;86.63;99796.53;5021619;28;20279;-75
2022/05/31 04:40:10;;;;;;;2.63;1.67;;;;;;;14.38;84.42;99803.06;5022169;28;20216;-75
2022/05/31 04:42:37;;;;;;;2.10;1.90;;;;;;;15.54;81.28;99805.13;5022427;28;20192;-75
2022/05/31 04:45:03;;;;;;;1.83;1.73;;;;;;;16.09;79.32;99808.31;5032490;28;20209;-77
2022/05/31 04:47:29;;;;;;;1.80;1.70;;;;;;;16.60;77.91;99808.84;5029791;28;20280;-77
2022/05/31 04:49:54;;;;;;;3.07;1.57;;;;;;;17.07;76.27;99799.94;5026522;28;20210;-77
2022/05/31 04:52:19;;;;;;;1.53;1.43;;;;;;;17.08;76.14;99804.25;5026603;28;20196;-77
2022/05/31 04:54:45;;;;;;;2.03;1.87;;;;;;;17.00;75.36;99801.13;5017436;28;20218;-77
2022/05/31 04:57:10;;;;;;;2.17;1.50;;;;;;;17.01;75.61;99806.31;5020361;28;20190;-77
2022/05/31 04:59:36;;;;;;;2.13;1.60;;;;;;;17.05;75.37;99809.63;5023048;28;20201;-77
2022/05/31 05:02:01;;;;;;;2.00;1.57;;;;;;;16.86;75.04;99802.53;5022933;28;20191;-77
2022/05/31 05:04:26;;;;;;;1.77;1.67;;;;;;;16.58;73.65;99805.44;5020894;28;20206;-77
2022/05/31 05:06:52;;;;;;;1.60;1.50;;;;;;;16.78;73.86;99804.63;5026058;28;20280;-77
2022/05/31 05:09:17;;;;;;;2.67;1.93;;;;;;;17.68;72.01;99809.41;5021244;28;20229;-77
2022/05/31 05:11:45;;;;;;;2.53;1.70;;;;;;;17.79;71.47;99811.53;5023372;28;20197;-76
2022/05/31 05:14:10;;;;;;;2.47;1.60;;;;;;;17.26;72.71;99813.06;5020956;28;20321;-76
2022/05/31 05:16:36;;;;;;;4.33;1.90;;;;;;;16.66;73.17;99823.41;5024525;28;20214;-77
2022/05/31 05:19:01;;;;;;;2.93;1.70;;;;;;;15.93;74.51;99821.13;5015602;28;20215;-77
2022/05/31 05:21:27;;;;;;;2.23;2.00;;;;;;;15.44;75.71;99819.41;5018051;28;20196;-77
2022/05/31 05:23:52;;;;;;;2.13;1.93;;;;;;;15.06;76.91;99822.50;5019160;28;20190;-77
2022/05/31 05:26:18;;;;;;;2.30;1.90;;;;;;;15.01;77.30;99816.56;5020696;28;20219;-76
2022/05/31 05:31:34;;;;;;;2.13;1.80;;;;;;;14.75;77.63;99817.47;5021884;28;20601;-74
2022/05/31 05:34:01;;;;;;;3.47;1.97;;;;;;;14.63;78.18;99832.56;5025164;28;20197;-75
2022/05/31 05:36:27;;;;;;;3.00;1.80;;;;;;;14.65;78.79;99829.94;5025601;28;20194;-75
2022/05/31 05:38:53;;;;;;;2.13;1.70;;;;;;;14.93;78.23;99829.03;5026021;28;20678;-75
2022/05/31 05:41:19;;;;;;;1.70;1.60;;;;;;;16.10;75.87;99828.28;5022808;28;20194;-75
2022/05/31 05:43:45;;;;;;;1.83;1.63;;;;;;;16.77;74.40;99832.53;5027593;28;20218;-75
2022/05/31 05:46:25;;;;;;;1.70;1.60;;;;;;;16.83;73.57;99835.78;5026410;28;20234;-75
2022/05/31 05:48:51;;;;;;;3.13;1.90;;;;;;;16.90;72.88;99821.53;5022071;28;20982;-75
2022/05/31 05:51:18;;;;;;;2.30;1.80;;;;;;;17.18;72.30;99826.47;5026006;28;20344;-75
2022/05/31 05:53:44;;;;;;;2.23;1.73;;;;;;;17.31;72.25;99832.00;5022773;28;20306;-76
2022/05/31 05:56:09;;;;;;;2.00;1.70;;;;;;;17.21;72.33;99825.47;5023103;28;20181;-76
2022/05/31 05:58:35;;;;;;;1.80;1.70;;;;;;;17.25;72.83;99826.19;5024443;28;20333;-76
2022/05/31 06:01:01;;;;;;;2.03;1.80;;;;;;;17.61;71.91;99835.91;5020548;28;20258;-75
2022/05/31 06:03:37;;;;;;;1.10;1.10;;;;;;;17.50;72.22;99831.16;5022328;28;20575;-76
2022/05/31 06:06:03;;;;;;;1.90;1.50;;;;;;;17.23;72.72;99839.34;5023229;28;20209;-75
2022/05/31 06:08:36;;;;;;;2.00;1.70;;;;;;;16.94;73.25;99828.34;5026930;28;20192;-76
2022/05/31 06:11:04;;;;;;;1.63;1.43;;;;;;;16.89;73.55;99835.53;5027629;28;20184;-75
2022/05/31 06:13:35;;;;;;;3.10;1.30;;;;;;;16.77;73.80;99829.91;5025889;28;20671;-76
2022/05/31 06:16:02;;;;;;;2.07;1.57;;;;;;;16.87;73.73;99839.97;5022406;28;20180;-75
2022/05/31 06:18:32;;;;;;;2.90;1.50;;;;;;;17.40;72.92;99835.97;5026062;28;20187;-76
2022/05/31 06:21:02;;;;;;;1.93;1.77;;;;;;;17.71;72.63;99842.41;5020706;28;20174;-75
2022/05/31 06:23:28;;;;;;;4.30;1.50;;;;;;;18.98;70.66;99840.81;5016125;28;20187;-75
2022/05/31 06:25:54;;;;;;;1.80;1.60;;;;;;;20.01;67.74;99844.13;5016583;28;20220;-75
2022/05/31 06:28:20;;;;;;;1.90;1.60;;;;;;;20.57;66.20;99839.22;5020094;28;20561;-75
2022/05/31 06:30:45;;;;;;;2.13;1.57;;;;;;;21.08;65.19;99838.06;5019629;28;20178;-76
2022/05/31 06:33:10;;;;;;;1.77;1.47;;;;;;;22.04;63.51;99840.06;5027160;28;20187;-76
2022/05/31 06:35:37;;;;;;;2.03;1.80;;;;;;;23.36;60.46;99839.31;5023467;28;21055;-76
2022/05/31 06:38:03;;;;;;;2.93;1.70;;;;;;;24.02;58.64;99834.63;5017184;28;20637;-76
2022/05/31 06:40:29;;;;;;;2.27;1.90;;;;;;;24.33;58.07;99837.66;5011951;28;20354;-76
2022/05/31 06:42:54;;;;;;;1.90;1.70;;;;;;;24.69;57.60;99831.56;5043623;28;20171;-76
2022/05/31 06:45:20;;;;;;;1.97;1.77;;;;;;;25.06;57.13;99831.41;5023077;28;20726;-76
2022/05/31 06:47:45;;;;;;;2.03;1.77;;;;;;;25.36;57.04;99832.63;5021820;28;20905;-76
2022/05/31 06:50:12;;;;;;;3.40;1.73;;;;;;;25.62;56.24;99829.75;5019526;28;20222;-76
2022/05/31 06:58:06;;;;;;;1.83;1.60;;;;;;;26.39;55.37;99833.31;5019991;28;20240;-76
2022/05/31 07:00:32;;;;;;;2.00;1.70;;;;;;;26.15;55.23;99837.84;5020359;28;20210;-76
2022/05/31 07:02:59;;;;;;;1.90;1.70;;;;;;;25.07;55.66;99828.66;5020226;28;20189;-74
2022/05/31 07:05:25;;;;;;;3.30;1.73;;;;;;;23.91;56.54;99831.91;5023934;28;20308;-76
2022/05/31 07:07:54;;;;;;;2.03;1.77;;;;;;;23.11;57.80;99833.06;5023726;28;20187;-77
2022/05/31 07:10:21;;;;;;;2.00;1.53;;;;;;;23.67;57.73;99827.41;5023559;28;20203;-76
2022/05/31 07:12:47;;;;;;;2.87;1.70;;;;;;;24.48;57.30;99834.84;5018790;28;20274;-77
2022/05/31 07:15:13;;;;;;;2.07;1.87;;;;;;;24.96;56.68;99834.75;5027683;28;20362;-76
2022/05/31 07:17:39;;;;;;;2.70;1.90;;;;;;;25.63;56.02;99839.41;5029510;28;20193;-76
2022/05/31 07:20:06;;;;;;;2.10;1.90;;;;;;;26.21;55.37;99843.63;5028105;28;20211;-77
2022/05/31 07:22:32;;;;;;;2.63;1.77;;;;;;;26.66;55.03;99843.44;5014040;28;20189;-77
2022/05/31 07:24:57;;;;;;;3.30;1.47;;;;;;;26.82;54.47;99850.97;5025544;28;20545;-76
2022/05/31 07:27:24;;;;;;;3.20;1.60;;;;;;;26.99;54.12;99846.91;5018202;28;20253;-77
2022/05/31 07:29:49;;;;;;;2.27;1.60;;;;;;;27.19;53.63;99831.03;5019090;28;20208;-77
2022/05/31 07:32:15;;;;;;;4.07;1.93;;;;;;;27.00;53.73;99837.94;5025153;28;20194;-76
2022/05/31 07:34:40;;;;;;;1.87;1.50;;;;;;;27.10;53.83;99835.34;5018273;28;20191;-76
2022/05/31 07:37:06;;;;;;;2.13;1.60;;;;;;;27.06;53.97;99836.59;5026804;28;20411;-76
2022/05/31 07:39:31;;;;;;;3.50;1.70;;;;;;;26.41;54.53;99834.84;5029910;28;20221;-76
2022/05/31 07:41:59;;;;;;;1.73;1.50;;;;;;;26.28;55.12;99832.41;5025756;28;20262;-75
2022/05/31 07:44:25;;;;;;;1.70;1.50;;;;;;;26.38;54.20;99834.28;5021807;28;20307;-74
2022/05/31 07:46:51;;;;;;;1.90;1.70;;;;;;;26.20;54.31;99834.00;5024862;28;20583;-74
2022/05/31 07:49:17;;;;;;;2.03;1.50;;;;;;;26.29;54.22;99831.44;5019818;28;20204;-73
2022/05/31 07:51:42;;;;;;;2.00;1.63;;;;;;;26.20;54.17;99828.69;5022433;28;20184;-74
2022/05/31 07:54:08;;;;;;;2.33;1.50;;;;;;;26.37;54.19;99828.13;5023892;28;20570;-75
2022/05/31 07:56:33;;;;;;;1.57;1.40;;;;;;;26.67;53.99;99829.19;5024285;28;20318;-75
2022/05/31 07:58:59;;;;;;;1.97;1.53;;;;;;;26.50;53.87;99822.63;5021344;28;20208;-75
2022/05/31 08:01:25;;;;;;;4.97;2.00;;;;;;;25.90;54.67;99827.53;5018340;28;20329;-76
2022/05/31 08:03:52;;;;;;;2.90;1.63;;;;;;;25.73;55.27;99816.50;5021791;28;20192;-75
2022/05/31 08:06:20;;;;;;;3.03;1.53;;;;;;;25.96;55.10;99825.22;5026271;28;20283;-76
2022/05/31 08:08:46;;;;;;;1.57;1.47;;;;;;;25.95;55.07;99825.34;5021610;28;20208;-75
2022/05/31 08:11:11;;;;;;;1.77;1.67;;;;;;;25.91;55.39;99823.94;5026783;28;20190;-74
2022/05/31 08:13:38;;;;;;;1.50;1.40;;;;;;;25.79;55.29;99818.63;5022264;28;21080;-74
2022/05/31 08:16:06;;;;;;;2.30;1.80;;;;;;;25.52;55.34;99825.19;5022383;28;20646;-75
2022/05/31 08:18:33;;;;;;;2.43;1.50;;;;;;;25.29;55.08;99828.78;5021992;28;20243;-75
2022/05/31 08:21:04;;;;;;;1.60;1.50;;;;;;;25.18;55.56;99827.81;5018633;28;20322;-75
2022/05/31 08:23:30;;;;;;;1.43;1.33;;;;;;;25.07;55.83;99827.78;5023111;28;20187;-75
2022/05/31 08:25:56;;;;;;;1.70;1.50;;;;;;;24.96;56.26;99840.06;5022841;28;20253;-75
2022/05/31 08:28:22;;;;;;;1.90;1.67;;;;;;;24.93;56.61;99835.00;5023589;28;20768;-75
2022/05/31 08:31:07;;;;;;;1.87;1.50;;;;;;;24.81;57.23;99835.94;5022096;28;20180;-75
2022/05/31 08:33:33;;;;;;;2.47;1.57;;;;;;;24.80;57.25;99840.41;5018693;28;20192;-75
2022/05/31 08:35:59;;;;;;;2.00;1.57;;;;;;;24.87;56.31;99829.31;5024563;28;20596;-75
2022/05/31 08:38:25;;;;;;;2.53;1.67;;;;;;;24.76;56.49;99832.78;5015428;28;21479;-75
2022/05/31 08:41:08;;;;;;;1.80;1.70;;;;;;;24.71;56.96;99833.13;5019514;28;20241;-75
2022/05/31 08:43:46;;;;;;;1.60;1.50;;;;;;;24.62;57.14;99839.94;5020065;28;20202;-74
2022/05/31 08:46:23;;;;;;;3.00;1.33;;;;;;;24.68;57.17;99833.34;5026348;28;20203;-76
2022/05/31 08:51:52;;;;;;;1.57;1.33;;;;;;;24.78;57.37;99844.09;5022652;28;20233;-76
2022/05/31 08:52:24;;;;;;;2.80;1.40;;;;;;;24.90;56.86;99824.63;5011854;28;20192;-76
2022/05/31 08:57:44;;;;;;;1.50;1.40;;;;;;;24.86;56.69;99836.44;5018163;28;20198;-76
2022/05/31 09:00:17;;;;;;;2.23;1.60;;;;;;;24.73;56.36;99835.69;5023705;28;20204;-77
2022/05/31 09:02:51;;;;;;;2.40;1.53;;;;;;;24.57;56.69;99830.66;5021117;28;20188;-77
2022/05/31 09:05:27;;;;;;;1.77;1.67;;;;;;;24.54;56.56;99831.75;5022620;28;20215;-77
2022/05/31 09:08:01;;;;;;;2.33;1.70;;;;;;;24.38;56.59;99824.09;5019754;28;20188;-74
2022/05/31 09:10:32;;;;;;;2.70;1.87;;;;;;;24.27;56.68;99830.22;5020503;28;20253;-73
2022/05/31 09:13:09;;;;;;;1.87;1.40;;;;;;;24.14;57.11;99822.31;5034010;28;20732;-73
2022/05/31 09:15:55;;;;;;;2.47;1.77;;;;;;;24.09;57.64;99827.09;5019748;28;20187;-74
2022/05/31 09:18:46;;;;;;;3.20;1.77;;;;;;;24.12;57.79;99824.22;5020073;28;20192;-74
2022/05/31 09:21:24;;;;;;;1.50;1.40;;;;;;;24.07;58.02;99818.44;5017827;28;20245;-77
2022/05/31 09:23:49;;;;;;;1.80;1.50;;;;;;;23.95;58.11;99819.31;5031744;28;20181;-76
2022/05/31 09:26:40;;;;;;;1.73;1.60;;;;;;;23.75;57.95;99819.78;5035837;28;20684;-76
2022/05/31 09:29:27;;;;;;;1.60;1.50;;;;;;;23.64;58.02;99813.59;5020329;28;20220;-76
2022/05/31 09:32:02;;;;;;;2.50;1.60;;;;;;;23.66;58.43;99817.81;5022011;28;20219;-76
2022/05/31 09:35:07;;;;;;;2.70;1.60;;;;;;;23.82;58.37;99814.91;5015256;28;20188;-76
2022/05/31 09:37:42;;;;;;;1.93;1.40;;;;;;;23.88;58.04;99811.84;5016445;28;20276;-77
2022/05/31 09:40:16;;;;;;;2.33;1.60;;;;;;;23.88;58.48;99806.56;5022840;28;20211;-77
2022/05/31 09:43:19;;;;;;;1.30;1.20;;;;;;;23.93;58.32;99811.50;5021753;28;20369;-73
2022/05/31 09:45:53;;;;;;;1.27;1.17;;;;;;;23.95;58.46;99811.38;5023307;28;20206;-74
2022/05/31 09:48:27;;;;;;;1.57;1.47;;;;;;;23.90;58.73;99809.06;5017306;28;20220;-74
2022/05/31 09:51:00;;;;;;;1.83;1.60;;;;;;;23.78;58.60;99808.16;5019771;28;20196;-75
2022/05/31 09:59:12;;;;;;;2.23;1.50;;;;;;;23.65;57.89;99800.28;5017550;28;20230;-75
2022/05/31 10:01:44;;;;;;;2.50;1.40;;;;;;;23.65;57.67;99796.78;5023066;28;20183;-74
2022/05/31 10:04:13;;;;;;;2.70;1.43;;;;;;;23.72;57.87;99798.88;5014584;28;20223;-74
2022/05/31 10:06:55;;;;;;;3.83;1.87;;;;;;;24.00;57.24;99796.91;5025875;28;20223;-74
2022/05/31 10:09:24;;;;;;;2.77;1.47;;;;;;;24.34;57.01;99797.03;5022558;28;20203;-75
2022/05/31 10:12:22;;;;;;;1.60;1.40;;;;;;;24.57;56.63;99790.97;5024393;28;20194;-75
2022/05/31 10:14:50;;;;;;;2.20;1.63;;;;;;;24.76;56.36;99790.44;5025732;28;20245;-74
2022/05/31 10:17:37;;;;;;;2.30;1.53;;;;;;;24.80;55.78;99789.25;5022142;28;20562;-75
2022/05/31 10:20:09;;;;;;;2.03;1.57;;;;;;;24.96;55.47;99788.91;5019816;28;20239;-74
2022/05/31 10:22:35;;;;;;;2.63;1.60;;;;;;;25.14;54.74;99780.50;5028141;28;20548;-76
2022/05/31 10:25:18;;;;;;;1.80;1.47;;;;;;;25.34;54.24;99781.56;5028083;28;20670;-75
2022/05/31 10:27:44;;;;;;;2.03;1.50;;;;;;;25.56;54.18;99781.59;5028654;28;20222;-75
2022/05/31 10:30:18;;;;;;;1.47;1.37;;;;;;;25.84;53.68;99784.66;5032767;28;20202;-75
2022/05/31 10:32:53;;;;;;;2.23;1.40;;;;;;;26.20;53.49;99788.91;5027624;28;20303;-76
2022/05/31 10:35:32;;;;;;;1.83;1.57;;;;;;;26.43;52.67;99789.66;5022774;28;20191;-75
2022/05/31 10:38:01;;;;;;;2.20;1.50;;;;;;;26.57;52.53;99783.16;5024202;28;20213;-75
2022/05/31 10:40:35;;;;;;;1.30;1.20;;;;;;;26.83;52.25;99774.84;5025275;28;20236;-76
2022/05/31 10:43:17;;;;;;;3.50;1.63;;;;;;;27.06;51.85;99780.81;5021991;28;20182;-76
2022/05/31 10:45:44;;;;;;;1.63;1.53;;;;;;;27.12;51.95;99779.44;5027072;28;20222;-74
2022/05/31 10:48:09;;;;;;;2.57;1.70;;;;;;;27.01;51.83;99773.22;5026263;28;20274;-73
2022/05/31 10:50:54;;;;;;;1.80;1.40;;;;;;;26.84;52.52;99765.91;5023048;28;20322;-75
2022/05/31 10:53:29;;;;;;;1.73;1.50;;;;;;;26.65;52.95;99769.25;5024013;28;20564;-74
2022/05/31 10:56:02;;;;;;;1.97;1.50;;;;;;;26.52;53.25;99769.47;5023344;28;20196;-74
2022/05/31 10:58:52;;;;;;;1.70;1.47;;;;;;;26.50;53.62;99768.75;5024785;28;21276;-74
2022/05/31 11:01:47;;;;;;;1.40;1.30;;;;;;;26.53;53.37;99773.78;5025428;28;20506;-73
2022/05/31 11:04:28;;;;;;;2.33;1.30;;;;;;;26.44;51.51;99765.63;5019392;28;20181;-73
2022/05/31 11:07:14;;;;;;;1.87;1.60;;;;;;;26.04;50.14;99768.94;5027497;28;20333;-75
2022/05/31 11:13:24;;;;;;;1.77;1.13;;;;;;;25.68;49.92;99770.97;5035914;28;20248;-75
2022/05/31 11:15:57;;;;;;;2.20;1.30;;;;;;;25.56;49.89;99770.16;5021267;28;20183;-75
2022/05/31 11:18:42;;;;;;;1.57;1.47;;;;;;;25.39;49.64;99772.31;5024862;28;20180;-74
2022/05/31 11:21:23;;;;;;;1.43;1.10;;;;;;;25.16;49.77;99776.78;5027124;28;20210;-76
2022/05/31 11:24:06;;;;;;;1.13;1.03;;;;;;;25.11;47.92;99777.13;5029891;28;20179;-76
2022/05/31 11:26:44;;;;;;;1.67;1.20;;;;;;;25.16;47.27;99778.56;5031700;28;20694;-76
2022/05/31 11:29:18;;;;;;;1.50;1.33;;;;;;;25.26;47.96;99774.22;5020748;28;20273;-77
2022/05/31 11:31:58;;;;;;;1.83;1.40;;;;;;;25.37;48.39;99773.38;5023574;28;20196;-76
2022/05/31 11:35:07;;;;;;;1.53;1.30;;;;;;;25.47;47.90;99770.88;5027625;28;20668;-77
2022/05/31 11:37:39;;;;;;;1.33;1.13;;;;;;;25.53;48.18;99765.94;5030068;28;20203;-77
2022/05/31 11:40:32;;;;;;;2.37;1.30;;;;;;;25.69;48.55;99775.28;5019075;28;20241;-76
2022/05/31 11:43:00;;;;;;;1.20;1.10;;;;;;;26.06;48.49;99774.09;5030482;28;20278;-74
2022/05/31 11:45:52;;;;;;;1.33;1.10;;;;;;;26.19;48.47;99768.66;5025682;28;20210;-76
2022/05/31 11:48:38;;;;;;;1.63;1.00;;;;;;;26.26;47.82;99768.03;5018350;28;20267;-75
2022/05/31 11:51:37;;;;;;;2.07;1.20;;;;;;;26.37;47.92;99769.78;5033641;28;20681;-75
2022/05/31 11:54:12;;;;;;;1.63;1.50;;;;;;;26.47;48.69;99769.84;4986002;28;20197;-75
2022/05/31 11:57:14;;;;;;;1.67;1.40;;;;;;;26.48;48.78;99772.38;5021061;28;20202;-76
2022/05/31 11:59:50;;;;;;;2.87;1.60;;;;;;;26.57;46.78;99773.41;5015918;28;20208;-76
2022/05/31 12:02:28;;;;;;;1.27;1.13;;;;;;;26.60;47.04;99769.63;5024197;28;20202;-75
2022/05/31 12:05:16;;;;;;;2.33;1.50;;;;;;;26.67;46.51;99754.88;5023987;28;20226;-78
2022/05/31 12:07:58;;;;;;;1.40;1.20;;;;;;;26.78;45.77;99762.75;5022352;28;20402;-78
2022/05/31 12:10:37;;;;;;;1.93;1.60;;;;;;;26.77;46.62;99755.78;5022106;28;20306;-78
2022/05/31 12:13:07;;;;;;;1.33;1.20;;;;;;;26.86;46.40;99755.97;5023354;28;20199;-78